Time;durP1;ratioP1;P1;durP2;ratioP2;P2;SDS_P1;SDS_P2;PMS_P1;PMS_P2;Temp;Humidity;BMP_temperature;BMP_pressure;BME280_temperature;BME280_humidity;BME280_pressure;Samples;Min_cycle;Max_cycle;Signal;HPM_P1;HPM_P2
2024/01/09 00:01:44;;;;;;;13.27;8.60;;;-4.30;99.90;;;;;;5132657;27;20181;-72
2024/01/09 00:04:11;;;;;;;15.80;9.32;;;-4.30;99.90;;;;;;5114333;27;20173;-72
2024/01/09 00:06:36;;;;;;;19.45;8.48;;;-4.30;99.90;;;;;;5133206;27;20264;-72
2024/01/09 00:09:02;;;;;;;14.97;8.57;;;-4.40;99.90;;;;;;5131755;27;20264;-72
2024/01/09 00:11:29;;;;;;;17.83;8.88;;;-4.40;99.90;;;;;;5132660;27;20177;-72
2024/01/09 00:13:55;;;;;;;12.95;8.75;;;-4.40;99.90;;;;;;5096907;27;20557;-72
2024/01/09 00:16:21;;;;;;;16.27;9.85;;;-4.40;99.90;;;;;;5132449;27;20260;-72
2024/01/09 00:18:53;;;;;;;15.80;9.10;;;-4.50;99.90;;;;;;5132267;27;20817;-71
2024/01/09 00:21:22;;;;;;;13.52;8.15;;;-4.50;99.90;;;;;;5097663;27;20551;-71
2024/01/09 00:23:47;;;;;;;18.48;8.80;;;-4.50;99.90;;;;;;5131987;27;20181;-72
2024/01/09 00:26:13;;;;;;;16.57;9.70;;;-4.50;99.90;;;;;;5113247;27;20200;-72
2024/01/09 00:28:39;;;;;;;16.37;9.70;;;-4.60;99.90;;;;;;5131659;27;20683;-72
2024/01/09 00:31:04;;;;;;;16.73;9.40;;;-4.50;99.90;;;;;;5113366;27;20223;-73
2024/01/09 00:33:32;;;;;;;13.30;7.80;;;-4.50;99.90;;;;;;5131673;27;20208;-71
2024/01/09 00:35:57;;;;;;;17.15;10.00;;;-4.50;99.90;;;;;;5131538;27;20292;-73
2024/01/09 00:38:23;;;;;;;16.30;8.90;;;-4.50;99.90;;;;;;5112972;27;21031;-73
2024/01/09 00:40:48;;;;;;;16.57;10.13;;;-4.50;99.90;;;;;;5113198;27;20177;-73
2024/01/09 00:43:14;;;;;;;16.50;8.53;;;-4.50;99.90;;;;;;5095751;27;20275;-72
2024/01/09 00:45:39;;;;;;;11.90;7.87;;;-4.40;99.90;;;;;;5131548;27;20188;-72
2024/01/09 00:48:06;;;;;;;17.30;9.73;;;-4.40;99.90;;;;;;5131579;27;20200;-73
2024/01/09 00:50:31;;;;;;;13.93;8.98;;;-4.50;99.90;;;;;;5131473;27;20570;-72
2024/01/09 00:52:57;;;;;;;15.87;9.30;;;-4.50;99.90;;;;;;5112875;27;20185;-72
2024/01/09 00:55:22;;;;;;;15.60;8.70;;;-4.60;99.90;;;;;;5112588;27;20611;-73
2024/01/09 00:57:48;;;;;;;15.50;8.50;;;-4.60;99.90;;;;;;5130947;27;20217;-73
2024/01/09 01:00:14;;;;;;;15.00;8.90;;;-4.50;99.90;;;;;;5131060;27;20250;-72
2024/01/09 01:02:40;;;;;;;19.95;10.35;;;-4.50;99.90;;;;;;5112390;27;20181;-73
2024/01/09 01:05:06;;;;;;;16.17;9.37;;;-4.50;99.90;;;;;;5131146;27;20181;-71
2024/01/09 01:07:31;;;;;;;19.57;9.57;;;-4.50;99.90;;;;;;5112345;27;20204;-71
2024/01/09 01:09:57;;;;;;;17.27;8.53;;;-4.60;99.90;;;;;;5112462;27;20453;-71
2024/01/09 01:12:22;;;;;;;15.00;8.50;;;-4.60;99.90;;;;;;5130987;27;20181;-71
2024/01/09 01:14:48;;;;;;;15.50;9.60;;;-4.60;99.90;;;;;;5130826;27;20538;-71
2024/01/09 01:17:13;;;;;;;16.07;8.13;;;-4.60;99.90;;;;;;5111897;27;20286;-71
2024/01/09 01:19:39;;;;;;;24.63;11.90;;;-4.50;99.90;;;;;;5112224;27;20188;-72
2024/01/09 01:22:05;;;;;;;15.00;9.20;;;-4.60;99.90;;;;;;5094885;27;20683;-71
2024/01/09 01:24:30;;;;;;;12.37;8.00;;;-4.60;99.90;;;;;;5111725;27;20203;-71
2024/01/09 01:26:57;;;;;;;14.07;8.90;;;-4.60;99.90;;;;;;5130627;27;20279;-71
2024/01/09 01:29:22;;;;;;;16.95;8.82;;;-4.60;99.90;;;;;;5130478;27;20283;-73
2024/01/09 01:31:48;;;;;;;18.37;8.83;;;-4.70;99.90;;;;;;5112076;27;20190;-72
2024/01/09 01:34:14;;;;;;;14.60;8.63;;;-4.70;99.90;;;;;;5130511;27;20192;-73
2024/01/09 01:36:39;;;;;;;13.13;8.43;;;-4.70;99.90;;;;;;5111816;27;20224;-72
2024/01/09 01:39:05;;;;;;;14.70;8.30;;;-4.80;99.90;;;;;;5111770;27;20254;-72
2024/01/09 01:41:30;;;;;;;15.63;8.47;;;-4.70;99.90;;;;;;5130252;27;20644;-72
2024/01/09 01:43:56;;;;;;;13.40;9.37;;;-4.70;99.90;;;;;;5091774;27;20238;-72
2024/01/09 01:46:22;;;;;;;13.03;8.47;;;-4.70;99.90;;;;;;5129927;27;20185;-72
2024/01/09 01:48:49;;;;;;;17.52;9.48;;;-4.80;99.90;;;;;;5130050;27;20185;-72
2024/01/09 01:51:14;;;;;;;19.95;9.07;;;-4.80;99.90;;;;;;5130391;27;20243;-72
2024/01/09 01:53:40;;;;;;;19.47;10.43;;;-4.80;99.90;;;;;;5111499;27;20185;-72
2024/01/09 01:56:06;;;;;;;17.63;10.63;;;-4.90;99.90;;;;;;5130052;27;20660;-72
2024/01/09 01:58:33;;;;;;;13.38;8.50;;;-5.00;99.90;;;;;;5111297;27;20307;-72
2024/01/09 02:00:59;;;;;;;13.35;7.75;;;-5.00;99.90;;;;;;5129872;27;20177;-72
2024/01/09 02:03:26;;;;;;;13.18;7.97;;;-5.00;99.90;;;;;;5111234;27;20211;-72
2024/01/09 02:05:53;;;;;;;13.30;8.40;;;-5.00;99.90;;;;;;5129805;27;20182;-72
2024/01/09 02:08:24;;;;;;;12.80;8.52;;;-5.00;99.90;;;;;;5111123;27;20208;-72
2024/01/09 02:10:50;;;;;;;10.90;7.28;;;-5.00;99.90;;;;;;5129746;27;20188;-72
2024/01/09 02:13:16;;;;;;;12.80;7.78;;;-5.00;99.90;;;;;;5111292;27;20612;-72
2024/01/09 02:15:42;;;;;;;14.97;7.80;;;-5.00;99.90;;;;;;5111153;27;20188;-72
2024/01/09 02:18:08;;;;;;;16.90;9.13;;;-5.00;99.90;;;;;;5129647;27;20656;-72
2024/01/09 02:20:33;;;;;;;12.02;8.00;;;-5.10;99.90;;;;;;5111079;27;20660;-72
2024/01/09 02:22:59;;;;;;;13.60;7.63;;;-5.10;99.90;;;;;;5129743;27;20211;-72
2024/01/09 02:25:25;;;;;;;12.23;7.47;;;-5.20;99.90;;;;;;5111117;27;20648;-72
2024/01/09 02:28:08;;;;;;;11.87;7.80;;;-5.20;99.90;;;;;;5129337;27;20201;-72
2024/01/09 02:30:35;;;;;;;15.75;7.70;;;-5.20;99.90;;;;;;5129413;27;20302;-72
2024/01/09 02:33:02;;;;;;;19.75;9.05;;;-5.20;99.90;;;;;;5128847;27;20275;-71
2024/01/09 02:35:27;;;;;;;14.60;8.15;;;-5.10;99.90;;;;;;5111053;28;20671;-71
2024/01/09 02:37:53;;;;;;;12.97;8.37;;;-5.10;99.90;;;;;;5110562;28;20231;-71
2024/01/09 02:40:19;;;;;;;11.70;7.70;;;-5.20;99.90;;;;;;5110653;28;20250;-71
2024/01/09 02:42:44;;;;;;;14.60;7.57;;;-5.20;99.90;;;;;;5110762;27;20185;-71
2024/01/09 02:45:10;;;;;;;12.97;7.83;;;-5.20;99.90;;;;;;5129402;27;20181;-71
2024/01/09 02:47:36;;;;;;;14.90;8.90;;;-5.20;99.90;;;;;;5129210;28;20211;-71
2024/01/09 02:50:01;;;;;;;12.50;8.03;;;-5.20;99.90;;;;;;5129306;28;20185;-71
2024/01/09 02:52:27;;;;;;;13.10;8.00;;;-5.20;99.90;;;;;;5129266;28;20185;-73
2024/01/09 02:54:52;;;;;;;12.60;8.00;;;-5.30;99.90;;;;;;5129326;28;20195;-71
2024/01/09 02:57:18;;;;;;;15.30;8.13;;;-5.20;99.90;;;;;;5129088;28;20671;-71
2024/01/09 02:59:44;;;;;;;13.17;7.17;;;-5.20;99.90;;;;;;5129458;28;20181;-71
2024/01/09 03:02:09;;;;;;;11.20;7.77;;;-5.20;99.90;;;;;;5129324;28;20185;-71
2024/01/09 03:04:35;;;;;;;12.97;8.03;;;-5.20;99.90;;;;;;5129238;28;20192;-71
2024/01/09 03:07:00;;;;;;;11.20;7.80;;;-5.20;99.90;;;;;;5110841;28;20940;-71
2024/01/09 03:09:26;;;;;;;14.33;8.30;;;-5.30;99.90;;;;;;5110606;28;20185;-72
2024/01/09 03:11:53;;;;;;;10.47;6.60;;;-5.20;99.90;;;;;;5129108;28;20212;-72
2024/01/09 03:14:19;;;;;;;15.55;8.57;;;-5.20;99.90;;;;;;5129183;28;20644;-71
2024/01/09 03:16:48;;;;;;;11.53;7.13;;;-5.20;99.90;;;;;;5129090;28;20208;-71
2024/01/09 03:19:13;;;;;;;16.88;7.95;;;-5.20;99.90;;;;;;5110371;28;20208;-71
2024/01/09 03:21:39;;;;;;;12.13;9.07;;;-5.20;99.90;;;;;;5129158;28;20250;-71
2024/01/09 03:24:05;;;;;;;14.67;8.60;;;-5.30;99.90;;;;;;5110365;28;20267;-72
2024/01/09 03:26:30;;;;;;;15.60;9.20;;;-5.30;99.90;;;;;;5128925;28;20195;-72
2024/01/09 03:28:56;;;;;;;15.53;8.17;;;-5.30;99.90;;;;;;5129052;28;20194;-71
2024/01/09 03:31:22;;;;;;;19.60;9.50;;;-5.30;99.90;;;;;;5093633;28;20606;-72
2024/01/09 03:33:49;;;;;;;22.05;10.88;;;-5.30;99.90;;;;;;5110876;28;20688;-72
2024/01/09 03:36:14;;;;;;;16.98;9.30;;;-5.40;99.90;;;;;;5129358;28;20306;-72
2024/01/09 03:38:44;;;;;;;12.70;8.70;;;-5.40;99.90;;;;;;5129350;28;20296;-72
2024/01/09 03:41:09;;;;;;;18.95;9.05;;;-5.40;99.90;;;;;;5129540;28;20180;-72
2024/01/09 03:43:35;;;;;;;12.90;7.70;;;-5.40;99.90;;;;;;5112090;27;20181;-71
2024/01/09 03:46:01;;;;;;;13.73;7.70;;;-5.40;99.90;;;;;;5114804;27;20423;-72
2024/01/09 03:48:27;;;;;;;16.17;8.63;;;-5.30;99.90;;;;;;5133200;27;20584;-71
2024/01/09 03:50:52;;;;;;;13.70;8.40;;;-5.40;99.90;;;;;;5133401;27;20184;-71
2024/01/09 03:53:18;;;;;;;16.40;8.50;;;-5.40;99.90;;;;;;5114668;27;20193;-71
2024/01/09 03:55:44;;;;;;;12.00;7.33;;;-5.40;99.90;;;;;;5133123;27;20414;-71
2024/01/09 03:58:11;;;;;;;16.47;8.80;;;-5.40;99.90;;;;;;5132785;27;20800;-71
2024/01/09 04:00:37;;;;;;;15.60;8.75;;;-5.50;99.90;;;;;;5132732;27;20707;-72
2024/01/09 04:03:03;;;;;;;13.95;8.00;;;-5.40;99.90;;;;;;5132781;27;20620;-71
2024/01/09 04:05:29;;;;;;;14.63;8.27;;;-5.40;99.90;;;;;;5132463;27;20185;-71
2024/01/09 04:07:55;;;;;;;20.10;8.77;;;-5.40;99.90;;;;;;5132279;27;20664;-71
2024/01/09 04:10:20;;;;;;;13.67;8.07;;;-5.40;99.90;;;;;;5132376;27;20181;-71
2024/01/09 04:12:46;;;;;;;16.57;9.53;;;-5.40;99.90;;;;;;5113649;27;20181;-71
2024/01/09 04:15:12;;;;;;;16.33;9.77;;;-5.50;99.90;;;;;;5132121;27;20177;-71
2024/01/09 04:17:38;;;;;;;18.42;8.88;;;-5.50;99.90;;;;;;5131925;27;20254;-72
2024/01/09 04:20:04;;;;;;;18.60;9.37;;;-5.50;99.90;;;;;;5113499;27;20177;-71
2024/01/09 04:22:30;;;;;;;14.70;8.35;;;-5.60;99.90;;;;;;5131970;27;20180;-71
2024/01/09 04:24:56;;;;;;;14.05;8.05;;;-5.60;99.90;;;;;;5113569;27;20177;-71
2024/01/09 04:27:22;;;;;;;14.38;8.02;;;-5.50;99.90;;;;;;5131910;27;20197;-72
2024/01/09 04:29:48;;;;;;;12.23;8.02;;;-5.50;99.90;;;;;;5113690;27;20226;-71
2024/01/09 04:32:13;;;;;;;17.50;8.53;;;-5.50;99.90;;;;;;5132125;27;20187;-71
2024/01/09 04:34:39;;;;;;;19.90;9.30;;;-5.50;99.90;;;;;;5113747;27;20323;-71
2024/01/09 04:37:05;;;;;;;14.93;9.03;;;-5.60;99.90;;;;;;5113678;27;20228;-71
2024/01/09 04:39:30;;;;;;;15.30;9.47;;;-5.60;99.90;;;;;;5113777;27;21019;-72
2024/01/09 04:41:56;;;;;;;20.30;10.03;;;-5.60;99.90;;;;;;5132490;27;20177;-71
2024/01/09 04:44:22;;;;;;;18.30;9.65;;;-5.60;99.90;;;;;;5132545;27;20184;-71
2024/01/09 04:46:47;;;;;;;22.17;9.83;;;-5.50;99.90;;;;;;5132375;27;20197;-71
2024/01/09 04:49:13;;;;;;;16.50;8.90;;;-5.50;99.90;;;;;;5132388;27;20192;-71
2024/01/09 04:51:40;;;;;;;21.40;9.63;;;-5.60;99.90;;;;;;5131628;27;20190;-71
2024/01/09 04:54:06;;;;;;;19.42;9.48;;;-5.50;99.90;;;;;;5113038;27;20185;-71
2024/01/09 04:56:31;;;;;;;23.17;11.17;;;-5.40;99.90;;;;;;5112225;27;20241;-72
2024/01/09 04:58:57;;;;;;;16.07;10.70;;;-5.40;99.90;;;;;;5131247;27;20278;-72
2024/01/09 05:01:23;;;;;;;17.27;10.30;;;-5.40;99.90;;;;;;5131426;27;20192;-71
2024/01/09 05:03:50;;;;;;;17.80;10.27;;;-5.40;99.90;;;;;;5112799;27;20811;-72
2024/01/09 05:06:19;;;;;;;17.17;10.30;;;-5.50;99.90;;;;;;5131375;27;20641;-72
2024/01/09 05:08:45;;;;;;;20.60;9.75;;;-5.50;99.90;;;;;;5112344;27;20180;-72
2024/01/09 05:11:11;;;;;;;14.45;9.75;;;-5.50;99.90;;;;;;5131093;27;20191;-72
2024/01/09 05:13:37;;;;;;;16.40;9.70;;;-5.50;99.90;;;;;;5130905;27;20185;-72
2024/01/09 05:16:04;;;;;;;16.90;10.20;;;-5.50;99.90;;;;;;5112399;27;20185;-72
2024/01/09 05:18:30;;;;;;;20.23;9.55;;;-5.30;99.90;;;;;;5129798;27;20200;-73
2024/01/09 05:20:56;;;;;;;20.27;10.90;;;-5.30;99.90;;;;;;5129220;27;20298;-72
2024/01/09 05:23:21;;;;;;;16.03;9.27;;;-5.30;99.90;;;;;;5129272;27;20694;-72
2024/01/09 05:25:47;;;;;;;17.77;10.27;;;-5.30;99.90;;;;;;5129122;27;20182;-72
2024/01/09 05:28:12;;;;;;;25.13;11.50;;;-5.30;99.90;;;;;;5129329;27;20288;-72
2024/01/09 05:30:38;;;;;;;19.57;10.77;;;-5.10;99.90;;;;;;5093563;27;20188;-72
2024/01/09 05:33:05;;;;;;;19.77;10.50;;;-5.00;99.90;;;;;;5129120;27;20796;-72
2024/01/09 05:35:30;;;;;;;26.48;11.60;;;-4.90;99.90;;;;;;5129053;27;20239;-72
2024/01/09 05:37:56;;;;;;;18.80;10.40;;;-4.80;99.90;;;;;;5110087;27;20256;-72
2024/01/09 05:40:22;;;;;;;17.40;10.23;;;-4.80;99.90;;;;;;5110298;27;20181;-72
2024/01/09 05:42:47;;;;;;;21.47;10.77;;;-4.80;99.90;;;;;;5128806;27;20699;-72
2024/01/09 05:45:14;;;;;;;18.60;10.60;;;-4.80;99.90;;;;;;5128700;27;20177;-72
2024/01/09 05:47:40;;;;;;;22.95;11.18;;;-4.80;99.90;;;;;;5128592;27;20258;-72
2024/01/09 05:50:07;;;;;;;21.83;10.70;;;-4.80;99.90;;;;;;5128702;27;20180;-72
2024/01/09 05:52:36;;;;;;;22.15;10.57;;;-4.70;99.90;;;;;;5128689;27;20212;-72
2024/01/09 05:55:06;;;;;;;16.75;9.48;;;-4.80;99.90;;;;;;5128833;27;20327;-72
2024/01/09 05:57:32;;;;;;;17.92;10.10;;;-4.70;99.90;;;;;;5092978;27;20197;-72
2024/01/09 05:59:57;;;;;;;19.40;10.37;;;-4.80;99.90;;;;;;5128601;27;20185;-72
2024/01/09 06:02:24;;;;;;;17.27;10.40;;;-4.80;99.90;;;;;;5109777;27;20450;-72
2024/01/09 06:04:50;;;;;;;21.05;11.05;;;-4.80;99.90;;;;;;5128483;27;20184;-72
2024/01/09 06:07:17;;;;;;;24.80;11.37;;;-4.70;99.90;;;;;;5127560;27;20204;-72
2024/01/09 06:09:43;;;;;;;18.88;11.25;;;-4.70;99.90;;;;;;5128356;27;20185;-73
2024/01/09 06:12:08;;;;;;;20.70;10.38;;;-4.60;99.90;;;;;;5128424;27;20204;-73
2024/01/09 06:14:34;;;;;;;16.10;10.20;;;-4.60;99.90;;;;;;5092837;27;20257;-72
2024/01/09 06:17:00;;;;;;;17.20;10.20;;;-4.70;99.90;;;;;;5127973;27;20238;-72
2024/01/09 06:19:25;;;;;;;22.40;10.67;;;-4.70;99.90;;;;;;5109963;27;20269;-72
2024/01/09 06:21:51;;;;;;;17.20;10.10;;;-4.60;99.90;;;;;;5110328;27;20698;-72
2024/01/09 06:24:16;;;;;;;19.47;10.87;;;-4.60;99.90;;;;;;5128788;27;20373;-72
2024/01/09 06:26:42;;;;;;;18.63;11.13;;;-4.60;99.90;;;;;;5128735;27;20269;-72
2024/01/09 06:29:08;;;;;;;20.00;10.47;;;-4.60;99.90;;;;;;5110499;27;20555;-72
2024/01/09 06:31:34;;;;;;;17.73;11.53;;;-4.60;99.90;;;;;;5128944;27;20663;-72
2024/01/09 06:33:59;;;;;;;22.87;12.00;;;-4.70;99.90;;;;;;5110763;27;20943;-72
2024/01/09 06:36:25;;;;;;;17.47;10.73;;;-4.80;99.90;;;;;;5128577;27;20235;-72
2024/01/09 06:38:51;;;;;;;18.97;10.90;;;-4.80;99.90;;;;;;5128427;27;20215;-72
2024/01/09 06:41:16;;;;;;;24.33;13.73;;;-4.80;99.90;;;;;;5109939;28;20579;-72
2024/01/09 06:43:42;;;;;;;27.10;13.57;;;-4.80;99.90;;;;;;5109712;27;20177;-72
2024/01/09 06:46:08;;;;;;;24.03;12.43;;;-4.80;99.90;;;;;;5128130;27;20185;-72
2024/01/09 06:48:34;;;;;;;20.58;11.55;;;-4.80;99.90;;;;;;5109412;28;20208;-72
2024/01/09 06:50:59;;;;;;;26.10;13.93;;;-4.80;99.90;;;;;;5128183;28;20204;-72
2024/01/09 06:53:25;;;;;;;32.20;15.00;;;-4.70;99.90;;;;;;5127916;28;20260;-72
2024/01/09 06:55:51;;;;;;;22.77;13.07;;;-4.80;99.90;;;;;;5127867;28;20245;-72
2024/01/09 06:58:16;;;;;;;19.80;11.50;;;-4.80;99.90;;;;;;5127674;28;20217;-72
2024/01/09 07:00:43;;;;;;;20.93;11.87;;;-4.80;99.90;;;;;;5109256;28;20185;-72
2024/01/09 07:03:09;;;;;;;19.77;10.73;;;-4.70;99.90;;;;;;5127873;28;20196;-72
2024/01/09 07:05:35;;;;;;;17.95;10.40;;;-4.80;99.90;;;;;;5127716;28;20601;-72
2024/01/09 07:08:01;;;;;;;24.97;10.70;;;-4.80;99.90;;;;;;5127611;28;20197;-72
2024/01/09 07:10:26;;;;;;;16.60;10.13;;;-4.80;99.90;;;;;;5128084;28;20200;-73
2024/01/09 07:12:52;;;;;;;18.20;10.43;;;-4.80;99.90;;;;;;5109921;28;20173;-72
2024/01/09 07:15:18;;;;;;;27.83;15.03;;;-4.70;99.90;;;;;;5128290;28;20177;-72
2024/01/09 07:17:45;;;;;;;24.20;12.88;;;-4.70;99.90;;;;;;5109057;27;20207;-72
2024/01/09 07:20:11;;;;;;;22.33;11.82;;;-4.60;99.90;;;;;;5131443;27;20177;-72
2024/01/09 07:22:37;;;;;;;22.90;11.20;;;-4.70;99.90;;;;;;5113293;27;20234;-72
2024/01/09 07:25:03;;;;;;;31.20;12.47;;;-4.70;99.90;;;;;;5113021;27;20216;-72
2024/01/09 07:27:29;;;;;;;23.70;12.38;;;-4.70;99.90;;;;;;5113193;27;20277;-72
2024/01/09 07:29:54;;;;;;;36.80;17.00;;;-4.80;99.90;;;;;;5132079;27;20169;-71
2024/01/09 07:32:21;;;;;;;25.33;13.33;;;-4.70;99.90;;;;;;5132101;27;20173;-72
2024/01/09 07:34:47;;;;;;;26.42;10.65;;;-4.80;99.90;;;;;;5113708;27;20178;-72
2024/01/09 07:37:13;;;;;;;31.05;13.90;;;-4.80;99.90;;;;;;5132207;27;20213;-72
2024/01/09 07:39:39;;;;;;;29.23;13.05;;;-4.80;99.90;;;;;;5113529;27;20212;-71
2024/01/09 07:42:05;;;;;;;27.10;13.20;;;-4.80;99.90;;;;;;5113234;27;20176;-72
2024/01/09 07:44:31;;;;;;;25.53;13.00;;;-4.70;99.90;;;;;;5113050;27;20173;-72
2024/01/09 07:46:56;;;;;;;21.75;12.07;;;-4.70;99.90;;;;;;5112934;27;20193;-72
2024/01/09 07:49:22;;;;;;;22.97;12.23;;;-4.60;99.90;;;;;;5113024;27;20657;-71
2024/01/09 07:51:47;;;;;;;24.33;12.17;;;-4.60;99.90;;;;;;5131219;27;20189;-72
2024/01/09 07:54:13;;;;;;;18.90;11.77;;;-4.50;99.90;;;;;;5131440;27;20181;-71
2024/01/09 07:56:39;;;;;;;22.50;13.50;;;-4.50;99.90;;;;;;5112545;27;20205;-72
2024/01/09 07:59:04;;;;;;;22.30;12.53;;;-4.50;99.90;;;;;;5112456;27;20234;-71
2024/01/09 08:01:31;;;;;;;21.63;12.50;;;-4.50;99.90;;;;;;5130912;27;20180;-72
2024/01/09 08:03:57;;;;;;;32.20;16.38;;;-4.40;99.90;;;;;;5130956;27;20654;-72
2024/01/09 08:06:23;;;;;;;26.52;14.43;;;-4.30;99.90;;;;;;5130670;27;20185;-71
2024/01/09 08:08:48;;;;;;;24.23;13.80;;;-4.10;99.90;;;;;;5130948;27;20177;-72
2024/01/09 08:11:14;;;;;;;23.27;12.70;;;-4.10;99.90;;;;;;5112043;27;20548;-72
2024/01/09 08:13:40;;;;;;;20.50;10.77;;;-4.10;99.90;;;;;;5112112;27;20185;-71
2024/01/09 08:16:08;;;;;;;24.90;11.70;;;-4.10;99.90;;;;;;5111709;27;20432;-72
2024/01/09 08:18:34;;;;;;;22.70;12.88;;;-3.90;99.90;;;;;;5130272;27;20723;-71
2024/01/09 08:21:00;;;;;;;21.65;12.45;;;-4.00;99.90;;;;;;5094773;27;20990;-71
2024/01/09 08:23:25;;;;;;;20.60;10.70;;;-3.50;99.90;;;;;;5111961;27;20272;-71
2024/01/09 08:25:51;;;;;;;20.60;11.60;;;-3.50;99.90;;;;;;5130399;27;20177;-71
2024/01/09 08:28:17;;;;;;;17.40;11.87;;;-3.00;99.90;;;;;;5111815;27;20454;-72
2024/01/09 08:30:43;;;;;;;20.40;11.10;;;-2.10;99.90;;;;;;5129541;27;20200;-71
2024/01/09 08:33:08;;;;;;;26.77;14.60;;;-1.00;99.90;;;;;;5095007;27;20427;-72
2024/01/09 08:35:34;;;;;;;23.97;14.50;;;-0.50;99.90;;;;;;5111731;27;20196;-72
2024/01/09 08:38:00;;;;;;;24.83;13.27;;;0.20;99.90;;;;;;5129988;27;20350;-72
2024/01/09 08:40:26;;;;;;;24.23;13.95;;;0.40;97.20;;;;;;5130371;27;20212;-71
2024/01/09 08:42:52;;;;;;;26.37;13.53;;;0.20;96.70;;;;;;5130304;27;20682;-72
2024/01/09 08:45:18;;;;;;;19.37;11.67;;;-0.10;96.60;;;;;;5130513;27;20758;-72
2024/01/09 08:47:44;;;;;;;20.10;13.83;;;-0.40;95.60;;;;;;5111853;27;20246;-72
2024/01/09 08:50:09;;;;;;;25.60;13.80;;;0.20;96.60;;;;;;5130166;27;20177;-71
2024/01/09 08:52:35;;;;;;;22.60;13.67;;;0.40;95.70;;;;;;5111661;27;20407;-71
2024/01/09 08:55:03;;;;;;;25.98;13.57;;;1.30;95.30;;;;;;5111829;27;20179;-70
2024/01/09 08:57:29;;;;;;;18.92;12.10;;;1.40;90.80;;;;;;5111399;27;20203;-71
2024/01/09 08:59:56;;;;;;;32.83;15.60;;;1.30;92.10;;;;;;5130287;27;20186;-72
2024/01/09 09:02:22;;;;;;;23.63;13.30;;;1.80;93.10;;;;;;5111108;27;20449;-71
2024/01/09 09:04:48;;;;;;;23.93;14.27;;;2.50;88.10;;;;;;5130093;27;20504;-72
2024/01/09 09:07:14;;;;;;;24.70;15.07;;;2.90;86.00;;;;;;5129940;27;20521;-72
2024/01/09 09:09:40;;;;;;;22.60;14.27;;;2.80;83.70;;;;;;5130311;27;20564;-71
2024/01/09 09:12:06;;;;;;;21.60;12.93;;;2.70;82.20;;;;;;5130257;27;20414;-71
2024/01/09 09:14:32;;;;;;;25.20;13.93;;;2.20;82.10;;;;;;5130450;27;20536;-71
2024/01/09 09:16:57;;;;;;;23.77;14.23;;;1.50;83.80;;;;;;5130388;27;20453;-71
2024/01/09 09:19:23;;;;;;;22.37;14.90;;;1.00;87.00;;;;;;5111735;27;20970;-71
2024/01/09 09:21:52;;;;;;;25.90;14.90;;;0.30;87.80;;;;;;5111743;27;20217;-71
2024/01/09 09:24:17;;;;;;;22.92;14.57;;;0.10;90.60;;;;;;5111895;27;20696;-72
2024/01/09 09:26:43;;;;;;;23.50;13.90;;;-0.10;91.60;;;;;;5130132;27;20289;-72
2024/01/09 09:29:09;;;;;;;24.47;13.37;;;-0.30;91.90;;;;;;5112096;27;20268;-72
2024/01/09 09:31:35;;;;;;;26.23;14.02;;;-0.50;92.80;;;;;;5112033;27;20191;-71
2024/01/09 09:34:01;;;;;;;24.10;12.93;;;-0.40;93.50;;;;;;5112244;27;20195;-71
2024/01/09 09:36:26;;;;;;;20.77;13.10;;;-0.60;93.70;;;;;;5112510;27;20224;-71
2024/01/09 09:38:53;;;;;;;28.50;12.93;;;-0.50;92.80;;;;;;5112073;27;20217;-71
2024/01/09 09:41:20;;;;;;;20.75;12.43;;;-0.40;94.20;;;;;;5130564;27;20182;-71
2024/01/09 09:43:55;;;;;;;21.75;13.93;;;0.50;93.70;;;;;;5112047;27;20566;-71
2024/01/09 09:46:31;;;;;;;25.30;14.63;;;2.20;91.80;;;;;;5130098;27;20795;-71
2024/01/09 09:48:57;;;;;;;21.80;13.83;;;3.80;87.80;;;;;;5112431;27;20201;-71
2024/01/09 09:51:24;;;;;;;22.43;14.50;;;5.40;84.20;;;;;;5130136;27;20925;-71
2024/01/09 09:53:54;;;;;;;26.10;15.93;;;6.60;76.60;;;;;;5129872;27;20414;-71
2024/01/09 09:56:20;;;;;;;24.30;15.63;;;7.50;69.40;;;;;;5129504;27;20905;-71
2024/01/09 09:58:46;;;;;;;25.30;16.60;;;8.20;64.40;;;;;;5129328;27;20494;-71
2024/01/09 10:01:13;;;;;;;22.40;16.50;;;8.80;62.80;;;;;;5129878;27;20474;-71
2024/01/09 10:04:17;;;;;;;23.53;15.80;;;9.20;58.40;;;;;;5129245;27;20225;-71
2024/01/09 10:06:46;;;;;;;22.07;15.37;;;9.80;55.70;;;;;;5040646;28;20454;-71
2024/01/09 10:09:14;;;;;;;24.47;16.00;;;9.70;52.80;;;;;;5128325;27;20512;-71
2024/01/09 10:11:39;;;;;;;28.10;17.63;;;10.50;52.40;;;;;;5128499;27;21010;-71
2024/01/09 10:14:09;;;;;;;23.37;17.00;;;10.80;50.20;;;;;;5110220;27;20418;-71
2024/01/09 10:16:55;;;;;;;21.67;16.83;;;10.70;48.50;;;;;;5128935;27;20176;-70
2024/01/09 10:19:24;;;;;;;20.40;15.83;;;11.30;47.60;;;;;;5109634;27;21003;-72
2024/01/09 10:21:50;;;;;;;23.23;15.60;;;10.90;45.50;;;;;;5110251;27;20464;-71
2024/01/09 10:24:16;;;;;;;25.30;17.47;;;10.70;45.20;;;;;;5110216;27;20449;-71
2024/01/09 10:26:43;;;;;;;25.67;17.13;;;10.50;44.80;;;;;;5128305;27;20842;-71
2024/01/09 10:29:09;;;;;;;20.60;15.90;;;10.70;44.90;;;;;;5128347;27;20423;-70
2024/01/09 10:31:35;;;;;;;26.27;15.33;;;10.20;44.10;;;;;;5109623;27;20421;-70
2024/01/09 10:34:01;;;;;;;23.80;16.27;;;10.60;44.70;;;;;;5109921;27;20426;-71
2024/01/09 10:36:27;;;;;;;21.00;15.70;;;10.30;42.60;;;;;;5092328;27;20204;-70
2024/01/09 10:39:04;;;;;;;23.47;16.43;;;10.50;44.00;;;;;;5128207;27;20588;-71
2024/01/09 10:41:30;;;;;;;24.20;17.07;;;10.40;43.00;;;;;;5128521;27;20491;-71
2024/01/09 10:43:56;;;;;;;25.83;17.13;;;10.90;44.40;;;;;;5128748;27;20503;-71
2024/01/09 10:46:27;;;;;;;22.40;16.60;;;10.60;41.90;;;;;;5109763;28;20836;-70
2024/01/09 10:48:53;;;;;;;21.70;14.97;;;9.90;42.20;;;;;;5128390;27;20181;-71
2024/01/09 10:51:22;;;;;;;20.07;15.20;;;10.10;43.30;;;;;;5109837;28;20424;-71
2024/01/09 10:53:50;;;;;;;21.20;15.20;;;9.90;43.60;;;;;;5127685;27;20417;-72
2024/01/09 10:56:16;;;;;;;21.37;15.40;;;10.40;42.30;;;;;;5127888;28;20428;-71
2024/01/09 10:58:45;;;;;;;22.57;15.47;;;9.70;41.50;;;;;;5109462;28;20515;-71
2024/01/09 11:01:11;;;;;;;23.20;15.67;;;9.30;42.40;;;;;;5109430;28;20862;-71
2024/01/09 11:03:37;;;;;;;24.83;15.83;;;9.30;42.70;;;;;;5109523;28;20428;-70
2024/01/09 11:06:04;;;;;;;25.40;15.27;;;10.00;42.60;;;;;;5109199;28;20223;-71
2024/01/09 11:08:33;;;;;;;21.00;14.47;;;10.00;41.90;;;;;;5089703;28;20611;-70
2024/01/09 11:11:00;;;;;;;47.60;16.67;;;10.50;42.40;;;;;;5124985;28;21007;-71
2024/01/09 11:13:27;;;;;;;22.43;14.00;;;11.10;41.80;;;;;;5127788;28;20510;-71
2024/01/09 11:15:55;;;;;;;19.80;13.73;;;11.30;40.80;;;;;;5127591;28;20503;-72
2024/01/09 11:18:22;;;;;;;20.07;14.13;;;11.50;40.20;;;;;;5109431;28;21065;-71
2024/01/09 11:20:58;;;;;;;21.90;14.70;;;11.80;40.80;;;;;;5109283;28;20431;-71
2024/01/09 11:23:51;;;;;;;21.93;15.27;;;12.20;40.70;;;;;;5127926;28;20424;-71
2024/01/09 11:26:18;;;;;;;21.00;14.10;;;11.90;40.00;;;;;;5127806;28;20577;-72
2024/01/09 11:28:45;;;;;;;24.70;15.37;;;11.10;39.10;;;;;;5127710;28;20433;-71
2024/01/09 11:31:20;;;;;;;18.93;13.97;;;11.20;41.00;;;;;;5127536;28;20425;-71
2024/01/09 11:33:51;;;;;;;22.20;14.60;;;10.40;40.80;;;;;;5127584;28;20441;-71
2024/01/09 11:36:33;;;;;;;22.50;14.93;;;10.10;41.00;;;;;;5127427;28;20791;-71
2024/01/09 11:38:59;;;;;;;30.03;20.60;;;10.00;40.90;;;;;;5108650;28;20575;-72
2024/01/09 11:41:34;;;;;;;23.43;14.10;;;9.90;42.20;;;;;;5127483;28;21226;-71
2024/01/09 11:44:06;;;;;;;20.90;13.73;;;9.60;41.40;;;;;;5108654;28;20427;-71
2024/01/09 11:46:34;;;;;;;27.07;15.83;;;9.60;41.40;;;;;;5127327;28;20411;-71
2024/01/09 11:49:01;;;;;;;36.77;16.10;;;8.90;42.20;;;;;;5127212;28;20513;-71
2024/01/09 11:51:29;;;;;;;26.70;15.57;;;8.70;42.40;;;;;;5126997;28;20951;-71
2024/01/09 11:53:58;;;;;;;35.90;17.10;;;8.80;42.50;;;;;;5127573;28;20496;-71
2024/01/09 11:56:25;;;;;;;24.10;14.67;;;8.50;41.60;;;;;;5127463;28;20475;-70
2024/01/09 11:58:52;;;;;;;26.20;15.13;;;8.10;41.90;;;;;;5127342;28;20614;-71
2024/01/09 12:01:21;;;;;;;20.37;13.43;;;7.60;41.90;;;;;;5127160;28;20414;-71
2024/01/09 12:03:54;;;;;;;24.63;14.97;;;7.20;42.60;;;;;;5127660;28;20407;-72
2024/01/09 12:06:24;;;;;;;25.10;14.20;;;6.90;44.40;;;;;;5130616;27;20439;-71
2024/01/09 12:08:51;;;;;;;24.37;15.10;;;6.70;44.40;;;;;;5132379;27;20415;-71
2024/01/09 12:11:17;;;;;;;22.10;13.23;;;6.40;45.40;;;;;;5131712;27;20783;-72
2024/01/09 12:13:44;;;;;;;21.43;12.77;;;6.10;44.90;;;;;;5131130;27;20509;-72
2024/01/09 12:16:20;;;;;;;19.87;13.10;;;5.30;44.30;;;;;;5130744;27;20429;-72
2024/01/09 12:18:56;;;;;;;17.23;11.63;;;4.80;46.20;;;;;;5130707;27;20473;-72
2024/01/09 12:21:30;;;;;;;22.60;12.80;;;4.20;47.10;;;;;;5130861;27;20414;-72
2024/01/09 12:23:59;;;;;;;19.50;12.83;;;4.00;48.50;;;;;;5131154;27;20413;-72
2024/01/09 12:26:27;;;;;;;18.70;12.20;;;3.50;46.90;;;;;;5130614;27;20414;-72
2024/01/09 12:28:54;;;;;;;25.67;14.30;;;3.10;48.70;;;;;;5130368;27;20908;-72
2024/01/09 12:31:23;;;;;;;23.38;12.45;;;2.90;49.60;;;;;;5111753;27;20250;-72